This is the latest recevied weather packets stored in our database for station/object SP3OTE-2. If no packets are shown the sender has not sent any weather packets the latest 10 day(s).
| Time | Temp. | Humidity | Pressure | Rain* | Wind** | Luminosity | Snow |
|---|---|---|---|---|---|---|---|
| 1777658670 | 21.11° C | 34% | 1025 hPa | - | - | - | - |
| 1777658070 | 21.67° C | 33% | 1024.9 hPa | - | - | - | - |
| 1777657470 | 22.78° C | 32% | 1024.8 hPa | - | - | - | - |
| 1777656870 | 24.44° C | 30% | 1024.8 hPa | - | - | - | - |
| 1777656269 | 28.33° C | 27% | 1024.7 hPa | - | - | - | - |
| 1777655669 | 28.89° C | 27% | 1024.6 hPa | - | - | - | - |
| 1777655069 | 30° C | 26% | 1024.5 hPa | - | - | - | - |
| 1777654469 | 31.11° C | 25% | 1024.5 hPa | - | - | - | - |
| 1777653868 | 31.11° C | 26% | 1024.6 hPa | - | - | - | - |
| 1777653268 | 30.56° C | 26% | 1024.6 hPa | - | - | - | - |
| 1777652668 | 31.11° C | 27% | 1024.7 hPa | - | - | - | - |
| 1777652068 | 30.56° C | 26% | 1024.7 hPa | - | - | - | - |
| 1777651467 | 30.56° C | 26% | 1024.8 hPa | - | - | - | - |
| 1777650867 | 29.44° C | 27% | 1024.9 hPa | - | - | - | - |
| 1777650267 | 29.44° C | 26% | 1025 hPa | - | - | - | - |
| 1777649666 | 29.44° C | 27% | 1025.1 hPa | - | - | - | - |
| 1777649065 | 28.33° C | 28% | 1024.9 hPa | - | - | - | - |
| 1777648465 | 28.33° C | 27% | 1025 hPa | - | - | - | - |
| 1777647865 | 27.78° C | 28% | 1025.1 hPa | - | - | - | - |
| 1777647265 | 27.78° C | 30% | 1025.1 hPa | - | - | - | - |
| 1777646664 | 27.22° C | 30% | 1025.3 hPa | - | - | - | - |
| 1777646064 | 26.11° C | 32% | 1025.3 hPa | - | - | - | - |
| 1777645464 | 27.22° C | 31% | 1025.3 hPa | - | - | - | - |
| 1777644864 | 26.67° C | 31% | 1025.3 hPa | - | - | - | - |
| 1777644263 | 26.11° C | 32% | 1025.5 hPa | - | - | - | - |
* Rain since midnight (hover to see other rain measurements)
** Current wind speed in m/s (hover to see current wind gust speed)